createdAt,value
2023-02-06T00:00:41.890Z,91.56
2023-02-06T00:02:43.933Z,90.90
2023-02-06T00:04:45.615Z,89.99
2023-02-06T00:06:47.242Z,89.03
2023-02-06T00:08:48.843Z,90.19
2023-02-06T00:10:50.361Z,90.36
2023-02-06T00:12:51.915Z,89.18
2023-02-06T00:14:53.462Z,88.35
2023-02-06T00:16:54.952Z,88.91
2023-02-06T00:18:58.020Z,88.80
2023-02-06T00:20:59.643Z,88.36
2023-02-06T00:23:01.404Z,88.99
2023-02-06T00:25:03.706Z,89.24
2023-02-06T00:27:05.207Z,88.81
2023-02-06T00:29:06.774Z,89.51
2023-02-06T00:31:09.138Z,90.57
2023-02-06T00:33:10.791Z,90.56
2023-02-06T00:35:13.330Z,90.88
2023-02-06T00:37:17.430Z,91.63
2023-02-06T00:39:19.587Z,91.72
2023-02-06T00:41:21.403Z,91.50
2023-02-06T00:43:23.188Z,91.46
2023-02-06T00:45:24.705Z,91.72
2023-02-06T00:47:26.416Z,90.50
2023-02-06T00:49:27.954Z,90.72
2023-02-06T00:51:29.919Z,89.58
2023-02-06T00:53:32.085Z,88.55
2023-02-06T00:55:34.230Z,89.48
2023-02-06T00:57:35.949Z,90.22
2023-02-06T00:59:37.461Z,90.99
2023-02-06T01:01:38.957Z,90.71
2023-02-06T01:03:40.677Z,92.06
2023-02-06T01:05:44.328Z,92.72
2023-02-06T01:07:46.005Z,92.50
2023-02-06T01:09:47.837Z,92.41
2023-02-06T01:11:49.476Z,93.69
2023-02-06T01:13:51.614Z,94.85
2023-02-06T01:15:53.622Z,94.41
2023-02-06T01:17:55.207Z,94.79
2023-02-06T01:19:56.742Z,94.62
2023-02-06T01:21:58.371Z,93.46
2023-02-06T01:24:00.338Z,93.16
2023-02-06T01:26:11.488Z,92.07
2023-02-06T01:28:13.690Z,91.54
2023-02-06T01:30:16.545Z,92.43
2023-02-06T01:32:18.144Z,92.34
2023-02-06T01:34:19.765Z,92.83
2023-02-06T01:36:21.998Z,92.96
2023-02-06T01:38:24.532Z,94.69
2023-02-06T01:40:26.505Z,95.84
2023-02-06T01:42:28.039Z,95.83
2023-02-06T01:44:31.905Z,96.05
2023-02-06T01:46:33.975Z,96.27
2023-02-06T01:48:47.676Z,95.87
2023-02-06T01:50:53.738Z,96.10
2023-02-06T01:52:55.974Z,95.45
2023-02-06T01:55:02.744Z,95.23
2023-02-06T01:57:08.430Z,93.84
2023-02-06T01:59:10.024Z,93.89
2023-02-06T02:01:11.929Z,93.32
2023-02-06T02:03:14.455Z,93.26
2023-02-06T02:05:18.267Z,93.15
2023-02-06T02:07:24.647Z,92.36
2023-02-06T02:09:28.446Z,92.15
2023-02-06T02:11:35.956Z,91.54
2023-02-06T02:13:39.625Z,91.73
2023-02-06T02:16:16.364Z,91.77
2023-02-06T02:18:32.796Z,91.57
2023-02-06T02:21:07.284Z,91.51
2023-02-06T02:23:25.885Z,91.08
2023-02-06T02:26:18.779Z,90.94
2023-02-06T02:28:33.743Z,91.32
2023-02-06T02:31:19.592Z,90.78
2023-02-06T02:33:42.666Z,90.60
2023-02-06T02:36:03.004Z,90.36
2023-02-06T02:38:11.765Z,89.93
2023-02-06T02:40:40.930Z,89.16
2023-02-06T02:42:54.965Z,89.30
2023-02-06T02:45:19.008Z,89.74
2023-02-06T02:47:28.468Z,89.78
2023-02-06T02:49:35.264Z,90.65
2023-02-06T02:51:39.656Z,90.34
2023-02-06T02:53:41.604Z,90.29
2023-02-06T02:55:43.168Z,90.24
2023-02-06T02:57:46.772Z,90.32
2023-02-06T02:59:50.333Z,89.87
2023-02-06T03:02:06.524Z,90.33
2023-02-06T03:04:14.351Z,90.12
2023-02-06T03:06:28.104Z,90.14
2023-02-06T03:08:48.406Z,89.91
2023-02-06T03:11:06.727Z,89.81
2023-02-06T03:13:21.031Z,89.77
2023-02-06T03:15:45.584Z,90.24
2023-02-06T03:17:52.695Z,89.73
2023-02-06T03:19:58.709Z,89.33
2023-02-06T03:22:01.550Z,89.71
2023-02-06T03:24:09.866Z,89.46
2023-02-06T03:26:16.437Z,89.27
2023-02-06T03:28:25.025Z,89.16
2023-02-06T03:30:29.716Z,88.88
2023-02-06T03:32:34.518Z,89.61
2023-02-06T03:35:14.436Z,90.18
2023-02-06T03:37:16.222Z,89.97
2023-02-06T03:39:18.056Z,89.75
2023-02-06T03:41:26.207Z,89.45
2023-02-06T03:43:29.488Z,89.42
2023-02-06T03:45:42.624Z,90.57
2023-02-06T03:47:47.752Z,91.62
2023-02-06T03:49:51.340Z,92.30
2023-02-06T03:52:05.557Z,92.67
2023-02-06T03:54:10.744Z,92.44
2023-02-06T03:56:26.517Z,93.06
2023-02-06T03:58:28.165Z,92.92
2023-02-06T04:00:31.872Z,91.59
2023-02-06T04:02:34.629Z,90.82
2023-02-06T04:04:39.167Z,90.12
2023-02-06T04:06:41.539Z,89.54
2023-02-06T04:08:43.058Z,89.93
2023-02-06T04:10:44.742Z,90.16
2023-02-06T04:12:46.362Z,90.23
2023-02-06T04:14:48.091Z,90.26
2023-02-06T04:16:49.751Z,90.30
2023-02-06T04:18:51.266Z,89.97
2023-02-06T04:20:52.969Z,89.70
2023-02-06T04:22:54.447Z,89.81
2023-02-06T04:24:55.968Z,89.68
2023-02-06T04:26:58.951Z,89.75
2023-02-06T04:29:00.796Z,90.20
2023-02-06T04:31:02.977Z,90.35
2023-02-06T04:33:05.423Z,90.86
2023-02-06T04:35:07.277Z,91.63
2023-02-06T04:37:12.200Z,91.68
2023-02-06T04:39:13.762Z,92.12
2023-02-06T04:41:15.422Z,91.87
2023-02-06T04:43:16.912Z,91.88
2023-02-06T04:45:18.545Z,91.81
2023-02-06T04:47:20.153Z,91.59
2023-02-06T04:49:21.884Z,91.37
2023-02-06T04:51:23.359Z,91.67
2023-02-06T04:53:24.907Z,92.08
2023-02-06T04:55:26.476Z,92.28
2023-02-06T04:57:28.030Z,92.28
2023-02-06T04:59:29.752Z,92.95
2023-02-06T05:01:31.330Z,93.11
2023-02-06T05:03:33.128Z,93.52
2023-02-06T05:05:35.184Z,93.26
2023-02-06T05:07:37.323Z,93.47
2023-02-06T05:09:38.957Z,93.19
2023-02-06T05:11:40.567Z,93.37
2023-02-06T05:13:43.154Z,93.04
2023-02-06T05:15:44.841Z,92.55
2023-02-06T05:17:46.414Z,92.45
2023-02-06T05:19:48.384Z,92.52
2023-02-06T05:21:50.284Z,93.35
2023-02-06T05:23:51.835Z,93.59
2023-02-06T05:25:53.408Z,94.00
2023-02-06T05:27:55.410Z,93.50
2023-02-06T05:29:56.964Z,94.03
2023-02-06T05:31:58.800Z,92.86
2023-02-06T05:34:00.490Z,91.89
2023-02-06T05:36:04.936Z,91.43
2023-02-06T05:38:06.522Z,91.59
2023-02-06T05:40:09.148Z,91.32
2023-02-06T05:42:11.821Z,91.17
2023-02-06T05:44:13.865Z,91.58
2023-02-06T05:46:15.719Z,91.25
2023-02-06T05:48:17.490Z,91.19
2023-02-06T05:50:19.316Z,91.95
2023-02-06T05:52:20.932Z,91.47
2023-02-06T05:54:22.559Z,92.00
2023-02-06T05:56:25.213Z,91.86
2023-02-06T05:58:26.876Z,91.18
2023-02-06T06:00:28.453Z,90.42
2023-02-06T06:02:30.011Z,90.46
2023-02-06T06:04:31.651Z,90.13
2023-02-06T06:06:33.211Z,90.40
2023-02-06T06:08:35.211Z,90.86
2023-02-06T06:10:36.745Z,90.59
2023-02-06T06:12:38.512Z,90.12
2023-02-06T06:14:40.304Z,90.06
2023-02-06T06:16:42.618Z,90.73
2023-02-06T06:18:44.416Z,91.28
2023-02-06T06:20:46.797Z,91.36
2023-02-06T06:22:48.459Z,91.33
2023-02-06T06:24:50.504Z,90.58
2023-02-06T06:26:52.384Z,91.21
2023-02-06T06:28:54.173Z,91.63
2023-02-06T06:31:03.590Z,92.07
2023-02-06T06:33:05.491Z,92.36
2023-02-06T06:35:07.280Z,93.21
2023-02-06T06:37:08.793Z,93.24
2023-02-06T06:39:10.838Z,92.74
2023-02-06T06:41:12.753Z,92.01
2023-02-06T06:43:14.417Z,92.20
2023-02-06T06:45:16.107Z,92.87
2023-02-06T06:47:17.728Z,94.31
2023-02-06T06:49:19.197Z,95.30
2023-02-06T06:51:21.567Z,98.65
2023-02-06T06:53:23.689Z,95.25
2023-02-06T06:55:25.371Z,95.01
2023-02-06T06:57:29.838Z,95.13
2023-02-06T06:59:31.384Z,95.14
2023-02-06T07:01:33.260Z,95.64
2023-02-06T07:03:35.019Z,95.05
2023-02-06T07:05:36.928Z,94.62
2023-02-06T07:07:41.586Z,95.04
2023-02-06T07:09:43.119Z,95.19
2023-02-06T07:11:44.672Z,94.89
2023-02-06T07:13:46.770Z,94.88
2023-02-06T07:15:48.292Z,95.27
2023-02-06T07:17:49.827Z,95.33
2023-02-06T07:19:52.549Z,95.42
2023-02-06T07:21:54.085Z,95.37
2023-02-06T07:23:55.876Z,94.82
2023-02-06T07:26:02.162Z,94.90
2023-02-06T07:28:03.827Z,93.84
2023-02-06T07:30:06.650Z,93.61
2023-02-06T07:32:09.349Z,93.73
2023-02-06T07:34:12.510Z,94.54
2023-02-06T07:36:15.907Z,94.02
2023-02-06T07:38:17.738Z,94.50
2023-02-06T07:40:20.794Z,94.86
2023-02-06T07:42:22.362Z,94.70
2023-02-06T07:44:28.608Z,93.42
2023-02-06T07:46:33.344Z,93.94
2023-02-06T07:48:34.920Z,93.94
2023-02-06T07:50:36.821Z,93.43
2023-02-06T07:52:38.541Z,92.86
2023-02-06T07:54:40.041Z,93.01
2023-02-06T07:56:41.894Z,92.50
2023-02-06T07:58:44.356Z,91.94
2023-02-06T08:00:46.041Z,91.97
2023-02-06T08:02:47.870Z,91.97
2023-02-06T08:04:49.450Z,91.27
2023-02-06T08:06:51.022Z,91.25
2023-02-06T08:08:55.627Z,91.07
2023-02-06T08:10:57.145Z,91.16
2023-02-06T08:12:58.928Z,90.15
2023-02-06T08:15:00.474Z,91.51
2023-02-06T08:17:01.989Z,92.36
2023-02-06T08:19:03.762Z,92.19
2023-02-06T08:21:07.794Z,91.47
2023-02-06T08:23:09.764Z,92.75
2023-02-06T08:25:11.369Z,92.35
2023-02-06T08:27:12.847Z,93.36
2023-02-06T08:29:14.399Z,93.07
2023-02-06T08:31:26.443Z,92.24
2023-02-06T08:33:28.355Z,91.98
2023-02-06T08:35:29.894Z,91.25
2023-02-06T08:37:32.418Z,91.02
2023-02-06T08:39:33.938Z,89.09
2023-02-06T08:41:39.580Z,89.89
2023-02-06T08:43:41.113Z,89.20
2023-02-06T08:45:42.698Z,88.87
2023-02-06T08:47:44.218Z,89.07
2023-02-06T08:49:45.754Z,89.00
2023-02-06T08:51:49.504Z,88.57
2023-02-06T08:53:51.061Z,88.71
2023-02-06T08:55:58.419Z,89.53
2023-02-06T08:58:00.667Z,88.25
2023-02-06T09:00:02.961Z,87.65
2023-02-06T09:02:06.058Z,86.93
2023-02-06T09:04:10.557Z,87.76
2023-02-06T09:06:13.321Z,87.80
2023-02-06T09:08:14.913Z,86.60
2023-02-06T09:10:26.986Z,86.66
2023-02-06T09:12:28.893Z,87.09
2023-02-06T09:14:30.872Z,87.30
2023-02-06T09:16:33.511Z,86.22
2023-02-06T09:18:35.499Z,86.93
2023-02-06T09:20:37.069Z,86.52
2023-02-06T09:22:38.850Z,86.37
2023-02-06T09:24:40.917Z,85.11
2023-02-06T09:26:58.484Z,85.19
2023-02-06T09:29:05.346Z,84.72
2023-02-06T09:31:08.210Z,84.46
2023-02-06T09:33:09.837Z,84.40
2023-02-06T09:35:11.509Z,84.82
2023-02-06T09:37:13.228Z,83.45
2023-02-06T09:39:15.520Z,84.63
2023-02-06T09:41:28.677Z,81.43
2023-02-06T09:43:33.114Z,78.54
2023-02-06T09:45:35.235Z,75.45
2023-02-06T09:47:47.570Z,74.52
2023-02-06T09:49:54.493Z,76.95
2023-02-06T09:52:27.881Z,72.23
2023-02-06T09:54:43.151Z,74.93
2023-02-06T09:57:17.712Z,73.68
2023-02-06T09:59:29.777Z,71.26
2023-02-06T10:01:57.668Z,71.69
2023-02-06T10:04:38.831Z,72.90
2023-02-06T10:06:48.153Z,75.91
2023-02-06T10:09:03.600Z,77.28
2023-02-06T10:11:14.376Z,76.99
2023-02-06T10:13:33.236Z,73.69
2023-02-06T10:15:47.811Z,74.93
2023-02-06T10:17:56.305Z,75.34
2023-02-06T10:20:13.050Z,75.64
2023-02-06T10:22:26.831Z,76.29
2023-02-06T10:25:02.084Z,76.30
2023-02-06T10:27:11.076Z,78.02
2023-02-06T10:29:22.471Z,80.51
2023-02-06T10:31:24.056Z,79.22
2023-02-06T10:33:39.470Z,80.41
2023-02-06T10:35:47.195Z,81.32
2023-02-06T10:38:09.872Z,80.16
2023-02-06T10:40:29.017Z,80.62
2023-02-06T10:42:52.020Z,79.89
2023-02-06T10:45:20.288Z,78.71
2023-02-06T10:47:41.261Z,75.81
2023-02-06T10:49:50.079Z,77.01
2023-02-06T10:51:57.013Z,78.17
2023-02-06T10:54:02.808Z,80.08
2023-02-06T10:56:13.373Z,78.41
2023-02-06T10:58:30.031Z,76.47
2023-02-06T11:00:32.469Z,71.65
2023-02-06T11:02:49.010Z,70.77
2023-02-06T11:05:03.123Z,63.48
2023-02-06T11:07:24.989Z,63.42
2023-02-06T11:09:26.936Z,65.61
2023-02-06T11:11:32.086Z,66.20
2023-02-06T11:13:37.069Z,67.89
2023-02-06T11:16:02.411Z,69.66
2023-02-06T11:18:07.167Z,67.69
2023-02-06T11:20:25.888Z,68.67
2023-02-06T11:22:30.646Z,67.01
2023-02-06T11:24:35.349Z,66.15
2023-02-06T11:26:41.940Z,63.94
2023-02-06T11:28:56.230Z,62.34
2023-02-06T11:31:01.275Z,62.38
2023-02-06T11:33:07.136Z,57.79
2023-02-06T11:35:11.269Z,57.34
2023-02-06T11:37:32.790Z,56.04
2023-02-06T11:39:39.295Z,54.17
2023-02-06T11:41:40.969Z,50.72
2023-02-06T11:43:42.418Z,51.77
2023-02-06T11:45:47.065Z,47.05
2023-02-06T11:47:48.753Z,48.94
2023-02-06T11:49:50.410Z,48.33
2023-02-06T11:51:59.643Z,50.97
2023-02-06T11:54:03.804Z,50.89
2023-02-06T11:56:18.550Z,51.26
2023-02-06T11:58:22.513Z,52.23
2023-02-06T12:00:24.172Z,51.63
2023-02-06T12:02:31.946Z,48.99
2023-02-06T12:04:39.022Z,49.86
2023-02-06T12:06:41.339Z,48.13
2023-02-06T12:08:53.688Z,51.82
2023-02-06T12:11:00.907Z,49.47
2023-02-06T12:13:09.256Z,50.25
2023-02-06T12:15:36.247Z,51.12
2023-02-06T12:17:39.745Z,54.26
2023-02-06T12:19:52.179Z,55.22
2023-02-06T12:22:02.175Z,56.59
2023-02-06T12:24:30.862Z,58.23
2023-02-06T12:26:35.202Z,58.20
2023-02-06T12:29:04.778Z,57.81
2023-02-06T12:31:26.628Z,57.07
2023-02-06T12:33:53.386Z,56.17
2023-02-06T12:36:00.758Z,56.20
2023-02-06T12:38:12.464Z,56.42
2023-02-06T12:40:48.785Z,58.21
2023-02-06T12:43:07.065Z,58.95
2023-02-06T12:45:31.598Z,57.32
2023-02-06T12:47:57.631Z,60.01
2023-02-06T12:50:15.422Z,57.34
2023-02-06T12:52:21.266Z,58.53
2023-02-06T12:54:36.240Z,60.43
2023-02-06T12:56:54.104Z,64.69
2023-02-06T12:59:09.236Z,65.94
2023-02-06T13:01:30.125Z,65.91
2023-02-06T13:03:42.992Z,67.20
2023-02-06T13:05:49.107Z,68.40
2023-02-06T13:07:52.693Z,69.14
2023-02-06T13:10:05.759Z,68.12
2023-02-06T13:12:13.185Z,67.66
2023-02-06T13:14:28.696Z,64.39
2023-02-06T13:16:45.617Z,62.56
2023-02-06T13:18:52.477Z,64.38
2023-02-06T13:21:16.039Z,63.75
2023-02-06T13:23:17.794Z,64.18
2023-02-06T13:25:31.456Z,63.87
2023-02-06T13:27:40.004Z,64.39
2023-02-06T13:29:48.995Z,61.54
2023-02-06T13:32:11.331Z,59.78
2023-02-06T13:34:17.467Z,61.01
2023-02-06T13:36:26.988Z,60.91
2023-02-06T13:38:38.049Z,62.07
2023-02-06T13:40:39.702Z,62.67
2023-02-06T13:43:15.735Z,62.42
2023-02-06T13:45:45.475Z,63.31
2023-02-06T13:48:10.055Z,63.92
2023-02-06T13:50:50.001Z,65.69
2023-02-06T13:53:12.538Z,65.89
2023-02-06T13:55:34.140Z,64.52
2023-02-06T13:58:19.576Z,65.19
2023-02-06T14:00:30.069Z,64.13
2023-02-06T14:02:38.653Z,63.80
2023-02-06T14:04:41.136Z,61.59
2023-02-06T14:06:56.737Z,61.23
2023-02-06T14:09:32.738Z,61.90
2023-02-06T14:12:10.726Z,61.84
2023-02-06T14:14:38.679Z,62.94
2023-02-06T14:17:12.193Z,65.18
2023-02-06T14:19:28.327Z,64.52
2023-02-06T14:21:51.549Z,65.36
2023-02-06T14:23:58.825Z,65.43
2023-02-06T14:26:28.006Z,66.31
2023-02-06T14:28:53.723Z,65.43
2023-02-06T14:31:11.258Z,65.17
2023-02-06T14:33:18.835Z,65.98
2023-02-06T14:35:38.045Z,63.00
2023-02-06T14:38:01.906Z,63.91
2023-02-06T14:40:17.069Z,61.65
2023-02-06T14:42:31.094Z,62.93
2023-02-06T14:44:32.781Z,66.05
2023-02-06T14:46:35.023Z,66.49
2023-02-06T14:48:42.883Z,66.76
2023-02-06T14:50:54.853Z,67.45
2023-02-06T14:53:10.181Z,67.33
2023-02-06T14:55:36.305Z,66.71
2023-02-06T14:57:39.057Z,68.14
2023-02-06T14:59:51.298Z,68.97
2023-02-06T15:01:54.991Z,68.48
2023-02-06T15:04:14.735Z,68.00
2023-02-06T15:06:30.881Z,66.79
2023-02-06T15:08:33.565Z,67.76
2023-02-06T15:10:37.826Z,67.12
2023-02-06T15:12:39.379Z,68.06
2023-02-06T15:15:02.649Z,67.79
2023-02-06T15:17:04.402Z,69.34
2023-02-06T15:19:10.966Z,68.11
2023-02-06T15:21:16.127Z,69.39
2023-02-06T15:23:41.274Z,69.61
2023-02-06T15:25:45.404Z,69.53
2023-02-06T15:27:46.991Z,69.25
2023-02-06T15:29:50.261Z,69.10
2023-02-06T15:31:54.424Z,68.83
2023-02-06T15:33:59.039Z,67.03
2023-02-06T15:36:03.225Z,67.85
2023-02-06T15:38:08.255Z,68.21
2023-02-06T15:40:22.809Z,68.59
2023-02-06T15:42:24.489Z,67.77
2023-02-06T15:44:34.181Z,68.29
2023-02-06T15:46:37.828Z,68.37
2023-02-06T15:48:51.253Z,69.29
2023-02-06T15:51:17.277Z,68.17
2023-02-06T15:53:32.426Z,67.84
2023-02-06T15:55:36.170Z,69.45
2023-02-06T15:57:41.657Z,69.71
2023-02-06T15:59:43.984Z,69.50
2023-02-06T16:01:46.361Z,70.50
2023-02-06T16:03:55.831Z,70.57
2023-02-06T16:05:58.221Z,70.63
2023-02-06T16:08:01.340Z,70.09
2023-02-06T16:10:14.382Z,71.14
2023-02-06T16:12:16.455Z,70.69
2023-02-06T16:14:30.279Z,70.23
2023-02-06T16:16:32.573Z,70.25
2023-02-06T16:18:37.127Z,70.83
2023-02-06T16:20:42.249Z,71.22
2023-02-06T16:22:44.265Z,71.03
2023-02-06T16:24:46.023Z,71.54
2023-02-06T16:26:49.945Z,71.63
2023-02-06T16:28:54.642Z,71.32
2023-02-06T16:31:02.235Z,70.83
2023-02-06T16:33:24.174Z,71.71
2023-02-06T16:35:26.296Z,71.55
2023-02-06T16:37:30.055Z,71.77
2023-02-06T16:39:31.631Z,72.08
2023-02-06T16:41:36.996Z,72.83
2023-02-06T16:43:38.792Z,72.71
2023-02-06T16:45:41.109Z,73.20
2023-02-06T16:47:43.167Z,73.43
2023-02-06T16:49:48.037Z,73.47
2023-02-06T16:51:52.314Z,73.17
2023-02-06T16:53:54.552Z,73.36
2023-02-06T16:55:56.114Z,73.23
2023-02-06T16:58:00.290Z,72.78
2023-02-06T17:00:06.108Z,72.00
2023-02-06T17:02:14.520Z,71.79
2023-02-06T17:04:16.126Z,73.39
2023-02-06T17:06:29.147Z,71.87
2023-02-06T17:08:36.886Z,72.62
2023-02-06T17:10:38.678Z,72.71
2023-02-06T17:12:41.122Z,74.44
2023-02-06T17:14:43.556Z,74.36
2023-02-06T17:16:45.578Z,75.15
2023-02-06T17:18:48.403Z,74.50
2023-02-06T17:20:56.283Z,75.55
2023-02-06T17:22:57.949Z,75.42
2023-02-06T17:24:59.933Z,75.30
2023-02-06T17:27:03.061Z,75.69
2023-02-06T17:29:05.673Z,76.37
2023-02-06T17:31:08.343Z,76.27
2023-02-06T17:33:10.012Z,75.36
2023-02-06T17:35:12.085Z,74.74
2023-02-06T17:37:20.546Z,74.02
2023-02-06T17:39:22.707Z,74.78
2023-02-06T17:41:24.962Z,75.46
2023-02-06T17:43:26.516Z,75.90
2023-02-06T17:45:28.216Z,76.06
2023-02-06T17:47:29.749Z,75.93
2023-02-06T17:49:31.456Z,76.38
2023-02-06T17:51:33.186Z,76.24
2023-02-06T17:53:34.944Z,76.47
2023-02-06T17:55:36.896Z,76.18
2023-02-06T17:57:39.030Z,77.70
2023-02-06T17:59:40.573Z,75.71
2023-02-06T18:01:42.593Z,76.72
2023-02-06T18:03:46.412Z,76.66
2023-02-06T18:06:02.139Z,77.30
2023-02-06T18:08:03.815Z,78.03
2023-02-06T18:10:06.467Z,78.91
2023-02-06T18:12:08.159Z,78.53
2023-02-06T18:14:10.940Z,78.75
2023-02-06T18:16:22.639Z,79.25
2023-02-06T18:18:24.643Z,79.65
2023-02-06T18:20:26.281Z,79.06
2023-02-06T18:22:27.955Z,79.58
2023-02-06T18:24:29.659Z,80.45
2023-02-06T18:33:12.616Z,80.25
2023-02-06T18:38:10.017Z,81.28
2023-02-06T18:40:33.200Z,80.98
2023-02-06T18:42:55.181Z,80.51
2023-02-06T18:45:18.636Z,81.16
2023-02-06T18:47:42.334Z,81.24
2023-02-06T18:50:04.603Z,80.98
2023-02-06T18:55:27.462Z,81.25
2023-02-06T18:57:50.779Z,81.14
2023-02-06T19:00:14.775Z,81.06
2023-02-06T19:02:36.641Z,80.34
2023-02-06T19:04:58.971Z,80.64
2023-02-06T19:07:20.821Z,80.96
2023-02-06T19:09:43.131Z,80.78
2023-02-06T19:12:05.313Z,79.98
2023-02-06T19:14:27.560Z,81.00
2023-02-06T19:16:50.916Z,80.95
2023-02-06T19:19:13.020Z,79.42
2023-02-06T19:21:35.324Z,79.99
2023-02-06T19:24:00.117Z,78.08
2023-02-06T19:26:23.188Z,78.63
2023-02-06T19:28:45.425Z,78.03
2023-02-06T19:31:08.446Z,77.61
2023-02-06T19:33:32.148Z,77.95
2023-02-06T19:35:54.066Z,78.08
2023-02-06T19:38:15.899Z,78.23
2023-02-06T19:40:38.390Z,79.08
2023-02-06T19:43:00.826Z,77.85
2023-02-06T19:45:22.684Z,77.87
2023-02-06T19:47:44.581Z,77.83
2023-02-06T19:50:07.242Z,77.92
2023-02-06T19:52:09.482Z,77.45
2023-02-06T19:54:11.331Z,76.67
2023-02-06T19:56:17.732Z,76.64
2023-02-06T19:58:19.229Z,76.64
2023-02-06T20:00:20.929Z,75.67
2023-02-06T20:02:22.499Z,76.27
2023-02-06T20:04:27.731Z,77.52
2023-02-06T20:06:34.760Z,76.41
2023-02-06T20:08:41.589Z,76.85
2023-02-06T20:10:43.999Z,77.06
2023-02-06T20:12:46.456Z,76.77
2023-02-06T20:14:48.497Z,77.33
2023-02-06T20:16:50.974Z,77.02
2023-02-06T20:18:53.790Z,76.78
2023-02-06T20:20:55.704Z,75.70
2023-02-06T20:22:57.312Z,76.42
2023-02-06T20:24:58.844Z,76.45
2023-02-06T20:27:04.173Z,76.58
2023-02-06T20:29:07.211Z,76.27
2023-02-06T20:31:10.143Z,76.34
2023-02-06T20:33:11.719Z,76.65
2023-02-06T20:35:13.265Z,76.26
2023-02-06T20:37:17.467Z,76.18
2023-02-06T20:39:19.204Z,77.18
2023-02-06T20:41:22.782Z,76.39
2023-02-06T20:43:24.403Z,77.50
2023-02-06T20:45:26.148Z,77.66
2023-02-06T20:47:28.376Z,77.72
2023-02-06T20:49:31.214Z,77.88
2023-02-06T20:51:33.076Z,76.97
2023-02-06T20:53:34.755Z,77.16
2023-02-06T20:55:41.650Z,77.68
2023-02-06T20:57:43.183Z,77.79
2023-02-06T20:59:44.751Z,77.97
2023-02-06T21:01:46.646Z,77.14
2023-02-06T21:03:49.567Z,76.61
2023-02-06T21:05:56.891Z,75.98
2023-02-06T21:07:59.261Z,76.38
2023-02-06T21:10:01.317Z,76.47
2023-02-06T21:12:03.338Z,76.15
2023-02-06T21:14:06.338Z,76.77
2023-02-06T21:16:08.836Z,75.89
2023-02-06T21:18:10.386Z,76.98
2023-02-06T21:20:12.230Z,75.90
2023-02-06T21:22:13.866Z,75.38
2023-02-06T21:24:16.957Z,75.61
2023-02-06T21:26:18.815Z,76.54
2023-02-06T21:28:21.203Z,76.59
2023-02-06T21:30:22.831Z,76.64
2023-02-06T21:32:25.269Z,76.03
2023-02-06T21:34:26.869Z,74.70
2023-02-06T21:36:30.196Z,75.68
2023-02-06T21:38:31.759Z,75.64
2023-02-06T21:40:33.859Z,76.18
2023-02-06T21:42:35.610Z,76.35
2023-02-06T21:44:37.790Z,75.80
2023-02-06T21:46:40.188Z,75.84
2023-02-06T21:48:42.013Z,75.91
2023-02-06T21:50:44.779Z,75.84
2023-02-06T21:52:46.585Z,75.37
2023-02-06T21:54:48.302Z,75.76
2023-02-06T21:56:50.717Z,76.26
2023-02-06T21:58:52.733Z,75.50
2023-02-06T22:00:55.397Z,75.44
2023-02-06T22:02:57.041Z,75.64
2023-02-06T22:04:59.761Z,76.04
2023-02-06T22:07:01.641Z,76.38
2023-02-06T22:09:07.590Z,76.63
2023-02-06T22:11:17.200Z,76.43
2023-02-06T22:13:18.890Z,76.73
2023-02-06T22:15:20.687Z,76.66
2023-02-06T22:17:22.441Z,77.01
2023-02-06T22:19:24.060Z,76.35
2023-02-06T22:21:27.464Z,77.31
2023-02-06T22:23:29.043Z,76.74
2023-02-06T22:25:30.543Z,77.25
2023-02-06T22:27:32.997Z,77.47
2023-02-06T22:29:34.634Z,78.29
2023-02-06T22:31:36.851Z,77.17
2023-02-06T22:33:38.904Z,77.58
2023-02-06T22:35:40.544Z,77.28
2023-02-06T22:37:44.452Z,76.97
2023-02-06T22:39:46.182Z,77.38
2023-02-06T22:41:48.696Z,77.25
2023-02-06T22:43:51.000Z,76.84
2023-02-06T22:45:52.676Z,76.76
2023-02-06T22:47:54.297Z,77.05
2023-02-06T22:49:55.848Z,76.03
2023-02-06T22:52:00.152Z,75.87
2023-02-06T22:54:02.375Z,76.17
2023-02-06T22:56:24.046Z,76.63
2023-02-06T22:58:25.585Z,76.95
2023-02-06T23:00:28.679Z,75.70
2023-02-06T23:02:30.299Z,76.42
2023-02-06T23:04:36.062Z,77.17
2023-02-06T23:06:37.969Z,76.43
2023-02-06T23:08:40.854Z,77.09
2023-02-06T23:10:45.694Z,76.99
2023-02-06T23:12:47.761Z,77.37
2023-02-06T23:14:49.523Z,77.28
2023-02-06T23:16:51.677Z,77.21
2023-02-06T23:18:53.256Z,77.27
2023-02-06T23:21:03.999Z,77.27
2023-02-06T23:23:05.653Z,77.66
2023-02-06T23:25:07.271Z,78.21
2023-02-06T23:27:09.313Z,78.15
2023-02-06T23:29:15.672Z,77.92
2023-02-06T23:31:17.340Z,78.19
2023-02-06T23:33:19.650Z,78.52
2023-02-06T23:35:21.169Z,78.62
2023-02-06T23:37:22.707Z,78.73
2023-02-06T23:39:24.265Z,78.04
2023-02-06T23:41:27.859Z,78.31
2023-02-06T23:43:29.436Z,78.85
2023-02-06T23:45:30.978Z,78.96
2023-02-06T23:47:34.209Z,79.44
2023-02-06T23:49:35.996Z,78.91
2023-02-06T23:51:38.323Z,78.54
2023-02-06T23:53:39.855Z,79.08
2023-02-06T23:55:41.402Z,78.16
2023-02-06T23:57:44.023Z,78.83
2023-02-06T23:59:45.646Z,79.24
